KSFZ/SFZ METAR and TAF weather

Enter ICAO airport designator
Station Type Date Time Source
KSFZ METAR 2020/09/22 06:56 UTC NOAA

KSFZ 220656Z AUTO 35005KT 10SM CLR 03/01 A3027 RMK AO2 SLP199 T00330006


Station Type Date Time Source
KSFZ Decoded METAR 2020/09/22 06:56 UTC NOAA

Pawtucket, North Central State Airport, RI, United States (KSFZ) 41-55N 071-30W
Sep 22, 2020 - 02:56 AM EDT / 2020.09.22 0656 UTC
Wind: from the N (350 degrees) at 6 MPH (5 KT):0
Visibility: 10 mile(s):0
Sky conditions: clear
Temperature: 37.9 F (3.3 C)
Dew Point: 33.1 F (0.6 C)
Relative Humidity: 82%
Pressure (altimeter): 30.27 in. Hg (1025 hPa)
ob: KSFZ 220656Z AUTO 35005KT 10SM CLR 03/01 A3027 RMK AO2 SLP199 T00330006
cycle: 7

Station Type Date Time Source
KSFZ TAF UTC NOAA

Error!

Example: see airport list